Time;durP1;ratioP1;P1;durP2;ratioP2;P2;SDS_P1;SDS_P2;PMS_P1;PMS_P2;Temp;Humidity;BMP_temperature;BMP_pressure;BME280_temperature;BME280_humidity;BME280_pressure;Samples;Min_cycle;Max_cycle;Signal;HPM_P1;HPM_P2
2024/01/02 00:00:08;;;;;;;1.93;1.30;;;;;;;6.04;100.00;95776.25;5036515;28;20201;-67
2024/01/02 00:02:34;;;;;;;1.63;1.03;;;;;;;5.83;100.00;95769.88;5036170;28;20261;-67
2024/01/02 00:05:02;;;;;;;2.73;1.17;;;;;;;5.86;100.00;95763.50;5036410;28;20225;-67
2024/01/02 00:07:28;;;;;;;1.40;1.00;;;;;;;5.86;100.00;95759.06;5036003;28;20200;-67
2024/01/02 00:09:55;;;;;;;2.40;1.00;;;;;;;5.79;100.00;95759.88;5036350;28;20197;-67
2024/01/02 00:12:21;;;;;;;1.67;0.87;;;;;;;5.85;100.00;95762.66;5035908;28;20208;-66
2024/01/02 00:14:48;;;;;;;3.10;1.13;;;;;;;5.86;100.00;95758.28;5037052;28;20221;-67
2024/01/02 00:17:16;;;;;;;7.00;2.37;;;;;;;5.87;100.00;95747.66;5035544;28;20201;-67
2024/01/02 00:19:42;;;;;;;3.20;1.30;;;;;;;5.81;100.00;95739.63;5036368;28;20213;-67
2024/01/02 00:22:09;;;;;;;2.57;1.30;;;;;;;5.82;100.00;95736.03;5036644;28;20252;-67
2024/01/02 00:24:35;;;;;;;1.73;1.10;;;;;;;5.87;100.00;95733.75;5036143;28;20263;-68
2024/01/02 00:27:02;;;;;;;1.97;1.00;;;;;;;5.86;100.00;95734.75;5036059;28;20194;-67
2024/01/02 00:29:29;;;;;;;1.83;1.10;;;;;;;5.92;100.00;95731.47;5035942;28;20197;-67
2024/01/02 00:31:55;;;;;;;1.20;1.10;;;;;;;5.94;100.00;95726.91;5034712;28;20201;-67
2024/01/02 00:34:24;;;;;;;2.50;1.57;;;;;;;6.00;100.00;95719.22;5035829;28;21193;-67
2024/01/02 00:36:50;;;;;;;2.27;0.97;;;;;;;5.74;100.00;95718.50;5036478;28;20201;-68
2024/01/02 00:39:16;;;;;;;3.13;0.80;;;;;;;5.87;100.00;95712.81;5036263;28;20232;-68
2024/01/02 00:41:43;;;;;;;1.13;0.97;;;;;;;5.92;100.00;95702.69;5035341;28;20209;-67
2024/01/02 00:44:10;;;;;;;1.43;1.00;;;;;;;6.02;100.00;95692.91;5036127;28;20221;-67
2024/01/02 00:46:36;;;;;;;0.80;0.70;;;;;;;5.99;100.00;95686.22;5034950;28;21075;-68
2024/01/02 00:49:03;;;;;;;2.30;0.93;;;;;;;5.91;100.00;95688.81;5035928;28;20207;-68
2024/01/02 00:51:30;;;;;;;2.23;0.90;;;;;;;6.09;100.00;95676.41;5035966;28;20679;-68
2024/01/02 00:53:58;;;;;;;2.57;0.90;;;;;;;5.96;100.00;95673.47;5035282;28;20232;-67
2024/01/02 00:56:25;;;;;;;4.03;1.00;;;;;;;6.02;100.00;95669.38;5035330;28;20643;-67
2024/01/02 00:58:52;;;;;;;1.90;0.73;;;;;;;5.99;100.00;95664.47;5036329;28;20574;-67
2024/01/02 01:01:18;;;;;;;1.53;0.77;;;;;;;6.03;100.00;95665.78;5035904;28;20479;-67
2024/01/02 01:03:45;;;;;;;2.50;1.30;;;;;;;6.12;100.00;95665.63;5034990;28;20224;-68
2024/01/02 01:06:11;;;;;;;1.07;0.80;;;;;;;6.05;100.00;95662.84;5036004;28;20220;-67
2024/01/02 01:08:39;;;;;;;1.53;1.00;;;;;;;6.28;100.00;95663.81;5035701;28;20209;-67
2024/01/02 01:11:05;;;;;;;1.03;0.93;;;;;;;6.21;100.00;95665.47;5035824;28;20197;-67
2024/01/02 01:13:32;;;;;;;2.47;0.87;;;;;;;6.22;100.00;95658.41;5035450;28;20239;-68
2024/01/02 01:15:58;;;;;;;0.73;0.67;;;;;;;6.15;100.00;95665.31;5035519;28;20208;-67
2024/01/02 01:18:25;;;;;;;1.30;0.80;;;;;;;6.20;100.00;95650.75;5035256;28;20205;-67
2024/01/02 01:20:51;;;;;;;1.80;0.87;;;;;;;6.21;100.00;95641.91;5035937;28;20212;-68
2024/01/02 01:23:18;;;;;;;3.03;1.17;;;;;;;6.14;100.00;95648.78;5035026;28;20977;-67
2024/01/02 01:25:46;;;;;;;2.50;1.00;;;;;;;6.41;100.00;95635.34;5035342;28;20228;-67
2024/01/02 01:28:13;;;;;;;4.10;1.27;;;;;;;6.28;100.00;95640.25;5035859;28;20203;-67
2024/01/02 01:30:39;;;;;;;1.43;0.90;;;;;;;6.32;100.00;95638.94;5035735;28;20221;-67
2024/01/02 01:33:07;;;;;;;2.20;0.93;;;;;;;6.19;100.00;95638.63;5035214;28;20201;-67
2024/01/02 01:35:34;;;;;;;2.73;0.90;;;;;;;6.21;100.00;95635.84;5036048;28;20213;-67
2024/01/02 01:38:01;;;;;;;2.07;0.87;;;;;;;6.27;100.00;95643.84;5035765;28;20198;-67
2024/01/02 01:40:27;;;;;;;0.80;0.57;;;;;;;6.26;100.00;95634.41;5034989;28;20213;-67
2024/01/02 01:42:55;;;;;;;1.27;0.63;;;;;;;6.30;100.00;95633.09;5033429;28;20761;-66
2024/01/02 01:45:22;;;;;;;1.10;0.70;;;;;;;6.19;100.00;95625.56;5036702;28;20231;-67
2024/01/02 01:47:48;;;;;;;6.77;1.03;;;;;;;6.27;100.00;95628.16;5038369;28;20221;-66
2024/01/02 01:50:15;;;;;;;5.20;1.03;;;;;;;6.31;100.00;95645.19;5038594;28;20577;-66
2024/01/02 01:52:43;;;;;;;0.80;0.80;;;;;;;6.29;100.00;95626.22;5039270;28;20205;-66
2024/01/02 01:55:11;;;;;;;0.70;0.70;;;;;;;6.45;100.00;95633.22;5039536;28;20328;-67
2024/01/02 01:57:40;;;;;;;2.57;1.00;;;;;;;6.49;100.00;95631.88;5038476;28;20208;-67
2024/01/02 02:00:09;;;;;;;1.87;0.90;;;;;;;6.46;100.00;95614.72;5038691;28;20205;-67
2024/01/02 02:02:36;;;;;;;0.77;0.60;;;;;;;6.32;100.00;95615.41;5038172;28;20217;-66
2024/01/02 02:05:03;;;;;;;1.63;0.73;;;;;;;6.22;100.00;95614.78;5038777;28;20228;-67
2024/01/02 02:07:31;;;;;;;2.07;0.77;;;;;;;6.42;100.00;95607.38;5039055;28;20288;-67
2024/01/02 02:09:57;;;;;;;2.23;1.23;;;;;;;6.20;100.00;95614.13;5038648;28;20208;-67
2024/01/02 02:12:24;;;;;;;1.33;0.67;;;;;;;6.21;100.00;95600.06;5037581;28;20212;-67
2024/01/02 02:14:52;;;;;;;1.83;0.73;;;;;;;6.30;100.00;95601.69;5038860;28;20264;-67
2024/01/02 02:17:19;;;;;;;2.70;0.63;;;;;;;6.40;100.00;95598.88;5038629;28;20205;-67
2024/01/02 02:19:46;;;;;;;3.60;0.97;;;;;;;6.28;100.00;95595.78;5038670;28;20707;-67
2024/01/02 02:22:18;;;;;;;0.60;0.60;;;;;;;6.46;100.00;95590.38;5038289;28;20197;-67
2024/01/02 02:24:46;;;;;;;1.00;0.73;;;;;;;6.49;100.00;95592.63;5038386;28;20276;-67
2024/01/02 02:27:17;;;;;;;1.30;0.77;;;;;;;6.58;100.00;95589.84;5038345;28;20212;-67
2024/01/02 02:29:43;;;;;;;0.90;0.77;;;;;;;6.34;100.00;95595.13;5038028;28;20263;-67
2024/01/02 02:32:10;;;;;;;4.60;1.63;;;;;;;6.42;100.00;95584.63;5038529;28;20205;-67
2024/01/02 02:34:36;;;;;;;3.37;0.60;;;;;;;6.38;100.00;95580.72;5038205;28;21046;-67
2024/01/02 02:37:03;;;;;;;0.90;0.70;;;;;;;6.30;100.00;95574.69;5037899;28;20201;-67
2024/01/02 02:39:29;;;;;;;3.60;1.03;;;;;;;6.30;100.00;95567.69;5037709;28;20671;-67
2024/01/02 02:41:57;;;;;;;4.37;0.70;;;;;;;6.50;100.00;95558.44;5038192;28;20216;-66
2024/01/02 02:44:24;;;;;;;0.57;0.57;;;;;;;6.41;100.00;95562.06;5037601;28;20229;-67
2024/01/02 02:46:51;;;;;;;1.87;0.90;;;;;;;6.27;100.00;95562.75;5036865;28;20228;-66
2024/01/02 02:49:17;;;;;;;0.93;0.70;;;;;;;6.40;100.00;95557.84;5038106;28;20201;-67
2024/01/02 02:51:44;;;;;;;3.50;0.93;;;;;;;6.40;100.00;95559.63;5037911;28;20209;-67
2024/01/02 02:54:10;;;;;;;1.03;0.60;;;;;;;6.36;100.00;95559.13;5037568;28;20996;-67
2024/01/02 02:56:37;;;;;;;1.67;0.70;;;;;;;6.46;100.00;95546.69;5038292;28;20210;-67
2024/01/02 02:59:05;;;;;;;0.60;0.50;;;;;;;6.79;100.00;95545.56;5037617;28;20252;-67
2024/01/02 03:01:32;;;;;;;1.90;0.60;;;;;;;6.80;100.00;95536.75;5037486;28;20598;-67
2024/01/02 03:03:59;;;;;;;1.00;0.70;;;;;;;6.66;100.00;95535.66;5037717;28;20733;-66
2024/01/02 03:06:25;;;;;;;0.70;0.70;;;;;;;6.74;100.00;95532.19;5037728;28;20217;-67
2024/01/02 03:08:52;;;;;;;1.03;0.50;;;;;;;6.78;100.00;95536.09;5036437;28;20236;-67
2024/01/02 03:11:19;;;;;;;1.27;0.60;;;;;;;6.52;100.00;95527.69;5036715;28;20211;-66
2024/01/02 03:13:45;;;;;;;2.60;0.80;;;;;;;6.67;100.00;95523.41;5037352;28;20359;-67
2024/01/02 03:16:13;;;;;;;1.87;0.83;;;;;;;6.86;100.00;95515.09;5037619;28;20889;-67
2024/01/02 03:18:40;;;;;;;2.30;0.50;;;;;;;6.77;100.00;95513.50;5036963;28;20232;-67
2024/01/02 03:21:06;;;;;;;1.10;0.60;;;;;;;6.81;100.00;95513.00;5037403;28;20201;-66
2024/01/02 03:23:33;;;;;;;0.57;0.40;;;;;;;6.78;100.00;95502.88;5036558;28;20220;-66
2024/01/02 03:26:00;;;;;;;0.67;0.60;;;;;;;6.91;100.00;95500.50;5036951;28;20221;-67
2024/01/02 03:28:26;;;;;;;0.50;0.50;;;;;;;6.76;100.00;95496.19;5037471;28;20197;-66
2024/01/02 03:30:53;;;;;;;0.50;0.50;;;;;;;6.94;100.00;95488.88;5037125;28;20580;-67
2024/01/02 03:33:21;;;;;;;2.00;0.60;;;;;;;7.05;100.00;95486.69;5037024;28;20579;-67
2024/01/02 03:35:47;;;;;;;0.83;0.63;;;;;;;6.96;100.00;95476.41;5036725;28;20197;-66
2024/01/02 03:38:14;;;;;;;1.63;0.73;;;;;;;6.82;100.00;95471.91;5036876;28;20201;-66
2024/01/02 03:40:41;;;;;;;0.83;0.60;;;;;;;6.98;100.00;95453.50;5037247;28;20211;-66
2024/01/02 03:43:07;;;;;;;0.70;0.60;;;;;;;6.71;100.00;95443.53;5036698;28;20214;-66
2024/01/02 03:45:34;;;;;;;0.50;0.50;;;;;;;6.65;100.00;95445.00;5036952;28;20236;-67
2024/01/02 03:48:01;;;;;;;0.60;0.60;;;;;;;6.95;100.00;95430.25;5036745;28;20220;-66
2024/01/02 03:50:29;;;;;;;3.53;0.80;;;;;;;6.98;100.00;95425.50;5037151;28;20201;-66
2024/01/02 03:52:55;;;;;;;3.13;0.90;;;;;;;6.73;100.00;95420.59;5036209;28;20578;-67
2024/01/02 03:55:22;;;;;;;0.90;0.87;;;;;;;6.95;100.00;95419.78;5037062;28;20216;-66
2024/01/02 03:57:48;;;;;;;1.00;0.63;;;;;;;7.09;100.00;95413.78;5037149;28;20201;-67
2024/01/02 04:00:15;;;;;;;0.93;0.80;;;;;;;7.03;100.00;95406.66;5036680;28;20202;-66
2024/01/02 04:02:42;;;;;;;10.60;2.57;;;;;;;6.87;100.00;95397.13;5036077;28;20217;-67
2024/01/02 04:05:10;;;;;;;10.47;2.73;;;;;;;6.80;100.00;95393.53;5037103;28;20231;-67
2024/01/02 04:07:38;;;;;;;24.60;6.43;;;;;;;7.18;100.00;95383.91;5036521;28;20256;-66
2024/01/02 04:10:06;;;;;;;33.43;8.23;;;;;;;7.27;100.00;95381.88;5035608;28;20209;-67
2024/01/02 04:12:32;;;;;;;27.87;8.17;;;;;;;7.21;100.00;95378.34;5036396;28;21151;-66
2024/01/02 04:14:59;;;;;;;26.40;8.20;;;;;;;7.08;100.00;95383.38;5037337;28;20225;-67
2024/01/02 04:17:25;;;;;;;25.73;8.33;;;;;;;7.15;100.00;95369.34;5035799;28;20201;-66
2024/01/02 04:19:52;;;;;;;20.93;6.03;;;;;;;7.31;100.00;95370.03;5035670;28;20211;-66
2024/01/02 04:22:18;;;;;;;9.87;3.20;;;;;;;7.29;100.00;95361.56;5036834;28;20212;-67
2024/01/02 04:24:46;;;;;;;19.00;6.97;;;;;;;7.41;100.00;95359.31;5035752;28;20221;-67
2024/01/02 04:27:12;;;;;;;3.17;1.63;;;;;;;7.14;100.00;95359.06;5036053;28;20231;-67
2024/01/02 04:29:39;;;;;;;9.47;3.27;;;;;;;7.19;100.00;95359.34;5036918;28;20201;-67
2024/01/02 04:32:06;;;;;;;4.90;1.70;;;;;;;7.29;100.00;95353.69;5035906;28;20250;-67
2024/01/02 04:34:33;;;;;;;3.47;1.60;;;;;;;7.41;100.00;95356.69;5035610;28;20808;-67
2024/01/02 04:36:59;;;;;;;16.83;7.43;;;;;;;7.32;100.00;95355.16;5036526;28;20207;-67
2024/01/02 04:39:26;;;;;;;18.57;6.63;;;;;;;7.16;100.00;95351.84;5036394;28;20671;-68
2024/01/02 04:41:54;;;;;;;36.77;10.23;;;;;;;7.20;100.00;95342.66;5036504;28;20207;-66
2024/01/02 04:44:20;;;;;;;29.83;8.73;;;;;;;7.32;100.00;95339.41;5035773;28;20600;-68
2024/01/02 04:46:47;;;;;;;6.80;2.00;;;;;;;7.34;100.00;95330.38;5035689;28;20330;-66
2024/01/02 04:49:14;;;;;;;14.60;6.03;;;;;;;7.44;100.00;95324.88;5035750;28;20256;-67
2024/01/02 04:51:41;;;;;;;13.90;3.13;;;;;;;7.38;100.00;95322.97;5036196;28;20407;-66
2024/01/02 04:54:08;;;;;;;26.00;6.00;;;;;;;7.20;100.00;95308.59;5035859;28;20225;-67
2024/01/02 04:56:34;;;;;;;8.47;2.93;;;;;;;7.29;100.00;95311.78;5035999;28;20212;-67
2024/01/02 04:59:03;;;;;;;9.30;5.77;;;;;;;7.42;100.00;95311.94;5035951;28;20205;-67
2024/01/02 05:01:30;;;;;;;20.13;4.10;;;;;;;7.12;100.00;95300.81;5035487;28;20912;-66
2024/01/02 05:03:57;;;;;;;8.20;1.70;;;;;;;7.26;100.00;95301.63;5035668;28;20303;-67
2024/01/02 05:06:24;;;;;;;1.23;1.03;;;;;;;7.20;100.00;95298.91;5036180;28;20618;-66
2024/01/02 05:08:50;;;;;;;37.10;9.30;;;;;;;7.20;100.00;95288.44;5035807;28;20233;-67
2024/01/02 05:11:17;;;;;;;3.33;1.87;;;;;;;7.22;100.00;95290.88;5036443;28;20201;-67
2024/01/02 05:13:43;;;;;;;12.83;2.40;;;;;;;7.33;100.00;95292.06;5034836;28;20228;-66
2024/01/02 05:16:12;;;;;;;8.90;1.13;;;;;;;7.33;100.00;95276.34;5035243;28;20193;-67
2024/01/02 05:18:38;;;;;;;16.07;2.07;;;;;;;7.35;100.00;95266.47;5035888;28;20209;-67
2024/01/02 05:21:05;;;;;;;16.37;4.57;;;;;;;7.26;100.00;95281.69;5037325;28;20205;-67
2024/01/02 05:23:31;;;;;;;0.77;0.63;;;;;;;7.30;100.00;95273.25;5039703;28;20235;-67
2024/01/02 05:25:59;;;;;;;4.63;1.90;;;;;;;7.60;100.00;95273.09;5039346;28;20201;-66
2024/01/02 05:28:26;;;;;;;4.27;0.90;;;;;;;7.29;100.00;95266.41;5039491;28;20197;-66
2024/01/02 05:30:53;;;;;;;14.03;3.77;;;;;;;7.14;100.00;95257.75;5039672;28;20240;-67
2024/01/02 05:33:21;;;;;;;20.80;3.23;;;;;;;7.20;100.00;95248.34;5039910;28;20686;-66
2024/01/02 05:35:47;;;;;;;10.80;2.00;;;;;;;7.10;100.00;95247.78;5038796;28;20309;-66
2024/01/02 05:38:14;;;;;;;4.00;1.70;;;;;;;7.03;100.00;95246.88;5039546;28;20198;-66
2024/01/02 05:40:40;;;;;;;6.47;1.97;;;;;;;7.23;100.00;95247.97;5038973;28;20793;-67
2024/01/02 05:43:07;;;;;;;0.90;0.70;;;;;;;7.20;100.00;95245.72;5038994;28;20201;-67
2024/01/02 05:45:35;;;;;;;0.50;0.50;;;;;;;7.05;100.00;95239.66;5040016;28;20250;-67
2024/01/02 05:48:01;;;;;;;11.33;1.40;;;;;;;7.16;100.00;95237.41;5039163;28;20236;-67
2024/01/02 05:50:30;;;;;;;1.00;0.90;;;;;;;7.31;100.00;95236.41;5039277;28;20201;-66
2024/01/02 05:52:56;;;;;;;1.10;0.93;;;;;;;7.16;100.00;95233.97;5038579;28;20209;-67
2024/01/02 05:55:24;;;;;;;10.77;1.80;;;;;;;7.05;100.00;95223.94;5039597;28;20235;-66
2024/01/02 05:57:51;;;;;;;1.10;0.70;;;;;;;7.19;100.00;95217.88;5038729;28;20201;-67
2024/01/02 06:00:18;;;;;;;10.90;3.40;;;;;;;7.18;100.00;95201.38;5039016;28;20584;-68
2024/01/02 06:02:45;;;;;;;2.50;0.73;;;;;;;7.12;100.00;95217.00;5038300;28;20242;-66
2024/01/02 06:05:11;;;;;;;0.57;0.50;;;;;;;7.31;100.00;95197.09;5039173;28;20223;-67
2024/01/02 06:07:39;;;;;;;3.87;1.10;;;;;;;7.30;100.00;95205.94;5039020;28;20225;-67
2024/01/02 06:10:07;;;;;;;2.57;0.80;;;;;;;7.42;100.00;95206.28;5038677;28;20201;-66
2024/01/02 06:12:33;;;;;;;2.60;1.40;;;;;;;7.23;100.00;95200.81;5038354;28;20211;-67
2024/01/02 06:15:00;;;;;;;1.50;0.83;;;;;;;7.27;100.00;95195.03;5038757;28;20592;-66
2024/01/02 06:17:27;;;;;;;1.00;0.70;;;;;;;7.26;100.00;95196.81;5038410;28;20196;-66
2024/01/02 06:19:53;;;;;;;0.53;0.47;;;;;;;7.21;100.00;95192.34;5038211;28;20213;-66
2024/01/02 06:22:20;;;;;;;1.13;0.60;;;;;;;7.23;100.00;95185.91;5038506;28;20197;-66
2024/01/02 06:24:47;;;;;;;2.97;0.90;;;;;;;7.37;100.00;95185.91;5038731;28;20225;-66
2024/01/02 06:27:14;;;;;;;1.37;0.80;;;;;;;7.30;100.00;95169.25;5037774;28;20225;-67
2024/01/02 06:29:40;;;;;;;1.53;0.60;;;;;;;7.27;100.00;95164.41;5038164;28;20211;-67
2024/01/02 06:32:08;;;;;;;1.00;0.70;;;;;;;7.37;100.00;95177.22;5038347;28;20197;-67
2024/01/02 06:34:34;;;;;;;0.73;0.40;;;;;;;7.33;100.00;95162.84;5038406;28;20306;-67
2024/01/02 06:37:01;;;;;;;0.93;0.60;;;;;;;7.37;100.00;95175.41;5038141;28;20205;-67
2024/01/02 06:39:27;;;;;;;1.17;0.60;;;;;;;7.35;100.00;95158.25;5038484;28;20667;-67
2024/01/02 06:41:55;;;;;;;2.90;1.17;;;;;;;7.41;100.00;95139.19;5038370;28;20201;-67
2024/01/02 06:44:22;;;;;;;0.40;0.40;;;;;;;7.26;100.00;95131.31;5037651;28;20221;-67
2024/01/02 06:46:48;;;;;;;1.17;0.70;;;;;;;7.35;100.00;95135.47;5037476;28;20609;-67
2024/01/02 06:49:15;;;;;;;0.50;0.50;;;;;;;7.37;100.00;95146.59;5037918;28;20205;-67
2024/01/02 06:51:41;;;;;;;1.90;0.70;;;;;;;7.51;100.00;95166.72;5036265;28;20208;-67
2024/01/02 06:54:08;;;;;;;7.20;0.73;;;;;;;7.52;100.00;95147.38;5036080;28;20217;-66
2024/01/02 06:56:34;;;;;;;0.47;0.40;;;;;;;7.50;100.00;95138.88;5035233;28;20216;-67
2024/01/02 06:59:02;;;;;;;3.07;0.60;;;;;;;7.70;100.00;95133.84;5036102;28;20682;-67
2024/01/02 07:01:28;;;;;;;0.70;0.57;;;;;;;7.48;100.00;95134.81;5036339;28;20213;-67
2024/01/02 07:03:55;;;;;;;1.37;0.63;;;;;;;7.57;100.00;95133.69;5035290;28;20231;-66
2024/01/02 07:06:21;;;;;;;1.70;0.40;;;;;;;7.66;100.00;95133.41;5035829;28;20201;-67
2024/01/02 07:08:48;;;;;;;0.93;0.60;;;;;;;7.64;100.00;95139.84;5038220;28;20201;-67
2024/01/02 07:11:15;;;;;;;1.60;0.47;;;;;;;7.71;100.00;95138.88;5036105;28;20220;-67
2024/01/02 07:13:41;;;;;;;1.23;0.40;;;;;;;7.71;100.00;95140.72;5031423;28;20239;-67
2024/01/02 07:16:09;;;;;;;1.90;0.63;;;;;;;7.90;100.00;95131.25;5035714;28;20690;-67
2024/01/02 07:18:36;;;;;;;1.30;0.60;;;;;;;7.77;100.00;95116.38;5035975;28;20206;-67
2024/01/02 07:21:03;;;;;;;0.50;0.50;;;;;;;7.91;100.00;95121.56;5036238;28;20209;-67
2024/01/02 07:23:30;;;;;;;0.40;0.40;;;;;;;7.96;100.00;95119.97;5036570;28;20217;-67
2024/01/02 07:25:56;;;;;;;4.20;0.70;;;;;;;7.98;100.00;95133.72;5035243;28;20209;-67
2024/01/02 07:28:23;;;;;;;3.57;0.80;;;;;;;8.06;100.00;95117.84;5036955;28;20244;-67
2024/01/02 07:30:50;;;;;;;4.90;1.33;;;;;;;8.09;100.00;95116.66;5037726;28;20220;-67
2024/01/02 07:33:18;;;;;;;0.40;0.40;;;;;;;8.30;100.00;95127.16;5035650;28;20216;-67
2024/01/02 07:35:44;;;;;;;1.53;0.80;;;;;;;8.12;100.00;95129.41;5037020;28;20204;-67
2024/01/02 07:38:11;;;;;;;0.47;0.47;;;;;;;8.24;100.00;95133.19;5036828;28;20295;-67
2024/01/02 07:40:38;;;;;;;0.50;0.50;;;;;;;8.16;100.00;95128.88;5037329;28;20205;-68
2024/01/02 07:43:05;;;;;;;0.60;0.60;;;;;;;8.23;100.00;95116.63;5035196;28;20604;-67
2024/01/02 07:45:31;;;;;;;0.50;0.40;;;;;;;8.23;100.00;95126.31;5036954;28;20734;-67
2024/01/02 07:47:58;;;;;;;0.63;0.63;;;;;;;8.48;100.00;95109.97;5036212;28;20231;-68
2024/01/02 07:50:25;;;;;;;0.40;0.40;;;;;;;8.53;100.00;95111.00;5036342;28;20205;-67
2024/01/02 07:52:52;;;;;;;0.90;0.60;;;;;;;8.45;100.00;95110.31;5035019;28;20201;-67
2024/01/02 07:55:19;;;;;;;0.47;0.33;;;;;;;8.43;100.00;95101.84;5035666;28;20224;-67
2024/01/02 07:57:46;;;;;;;0.47;0.40;;;;;;;8.55;100.00;95109.00;5035109;28;20282;-67
2024/01/02 08:00:14;;;;;;;0.83;0.50;;;;;;;8.53;100.00;95107.56;5035773;28;20258;-67
2024/01/02 08:02:40;;;;;;;0.47;0.33;;;;;;;8.48;100.00;95095.00;5035372;28;20217;-67
2024/01/02 08:05:07;;;;;;;0.40;0.40;;;;;;;8.37;100.00;95102.59;5036026;28;20231;-68
2024/01/02 08:07:35;;;;;;;0.97;0.50;;;;;;;8.73;100.00;95108.50;5036172;28;20733;-68
2024/01/02 08:10:03;;;;;;;0.30;0.30;;;;;;;8.54;100.00;95089.00;5036460;28;20312;-68
2024/01/02 08:12:29;;;;;;;0.40;0.40;;;;;;;8.63;100.00;95102.78;5036483;28;20988;-67
2024/01/02 08:14:56;;;;;;;0.90;0.47;;;;;;;8.56;100.00;95107.97;5036104;28;20248;-68
2024/01/02 08:17:24;;;;;;;0.77;0.77;;;;;;;8.56;100.00;95080.94;5036381;28;20204;-67
2024/01/02 08:19:51;;;;;;;0.40;0.40;;;;;;;8.70;100.00;95086.06;5035780;28;20587;-68
2024/01/02 08:22:17;;;;;;;1.60;0.60;;;;;;;8.57;100.00;95072.84;5035964;28;20201;-68
2024/01/02 08:24:45;;;;;;;0.63;0.50;;;;;;;8.76;100.00;95093.16;5036662;28;20220;-68
2024/01/02 08:27:12;;;;;;;0.37;0.37;;;;;;;8.63;100.00;95082.59;5035634;28;20221;-68
2024/01/02 08:29:38;;;;;;;0.40;0.40;;;;;;;8.66;100.00;95084.81;5036451;28;20211;-68
2024/01/02 08:32:05;;;;;;;1.17;0.40;;;;;;;8.65;100.00;95075.31;5036713;28;20209;-68
2024/01/02 08:34:32;;;;;;;0.40;0.40;;;;;;;8.61;100.00;95083.78;5035726;28;20239;-68
2024/01/02 08:36:58;;;;;;;0.40;0.40;;;;;;;8.65;100.00;95085.81;5035317;28;20208;-68
2024/01/02 08:39:25;;;;;;;0.67;0.67;;;;;;;8.60;100.00;95093.50;5037058;28;20240;-68
2024/01/02 08:41:53;;;;;;;0.80;0.80;;;;;;;8.75;100.00;95082.88;5036139;28;20212;-67
2024/01/02 08:44:19;;;;;;;0.50;0.50;;;;;;;8.59;100.00;95086.59;5033028;28;20229;-68
2024/01/02 08:46:46;;;;;;;0.40;0.40;;;;;;;8.50;100.00;95079.88;5033806;28;20205;-68
2024/01/02 08:49:14;;;;;;;0.30;0.30;;;;;;;8.30;100.00;95079.94;5034149;28;20288;-67
2024/01/02 08:51:40;;;;;;;3.23;0.63;;;;;;;8.42;100.00;95086.28;5034208;28;20205;-67
2024/01/02 08:54:06;;;;;;;0.57;0.57;;;;;;;8.31;100.00;95071.88;5033483;28;21143;-67
2024/01/02 08:56:33;;;;;;;0.50;0.50;;;;;;;8.46;100.00;95090.16;5034028;28;20208;-67
2024/01/02 08:59:02;;;;;;;0.70;0.60;;;;;;;8.43;100.00;95080.84;5034414;28;20205;-67
2024/01/02 09:01:28;;;;;;;1.37;0.80;;;;;;;8.41;100.00;95074.97;5034074;28;20436;-68
2024/01/02 09:03:55;;;;;;;0.50;0.50;;;;;;;8.13;100.00;95094.31;5033965;28;20232;-67
2024/01/02 09:06:22;;;;;;;0.70;0.60;;;;;;;8.30;100.00;95079.94;5034109;28;20685;-67
2024/01/02 09:08:49;;;;;;;1.07;0.70;;;;;;;8.29;100.00;95067.84;5034113;28;20229;-68
2024/01/02 09:11:16;;;;;;;0.30;0.30;;;;;;;8.26;100.00;95091.81;5035837;28;20205;-67
2024/01/02 09:13:43;;;;;;;0.37;0.37;;;;;;;8.30;100.00;95077.31;5035413;28;20225;-68
2024/01/02 09:16:10;;;;;;;0.57;0.57;;;;;;;8.50;100.00;95073.81;5034487;28;20590;-68
2024/01/02 09:18:37;;;;;;;0.37;0.37;;;;;;;8.37;100.00;95065.84;5034719;28;20207;-68
2024/01/02 09:21:05;;;;;;;0.30;0.30;;;;;;;8.49;100.00;95074.84;5033319;28;20220;-68
2024/01/02 09:23:34;;;;;;;0.93;0.40;;;;;;;8.41;100.00;95069.72;5035751;28;20239;-68
2024/01/02 09:26:05;;;;;;;0.40;0.40;;;;;;;8.64;100.00;95073.72;5034837;28;20212;-68
2024/01/02 09:28:33;;;;;;;0.30;0.30;;;;;;;8.56;100.00;95073.03;5035904;28;20233;-68
2024/01/02 09:31:00;;;;;;;0.70;0.60;;;;;;;8.39;100.00;95057.78;5034655;28;20730;-68
2024/01/02 09:33:28;;;;;;;0.30;0.30;;;;;;;8.59;100.00;95062.97;5034889;28;20651;-68
2024/01/02 09:35:54;;;;;;;0.60;0.50;;;;;;;8.56;100.00;95083.56;5034946;28;20602;-68
2024/01/02 09:38:21;;;;;;;0.33;0.30;;;;;;;8.51;100.00;95076.28;5035757;28;20213;-68
2024/01/02 09:41:06;;;;;;;0.43;0.43;;;;;;;8.91;100.00;95083.34;5032385;28;20205;-68
2024/01/02 09:43:42;;;;;;;0.30;0.30;;;;;;;8.91;100.00;95077.28;5034690;28;20229;-70
2024/01/02 09:46:21;;;;;;;0.43;0.43;;;;;;;9.08;100.00;95087.28;5036318;28;20205;-68
2024/01/02 09:49:04;;;;;;;0.30;0.30;;;;;;;9.18;100.00;95083.28;5036018;28;20232;-68
2024/01/02 09:51:44;;;;;;;0.33;0.33;;;;;;;9.27;100.00;95083.91;5034743;28;20243;-68
2024/01/02 09:54:28;;;;;;;0.40;0.40;;;;;;;9.21;100.00;95082.06;5033936;28;20221;-68
2024/01/02 09:57:02;;;;;;;0.40;0.40;;;;;;;9.33;100.00;95075.22;5036651;28;20205;-68
2024/01/02 09:59:42;;;;;;;0.40;0.40;;;;;;;9.23;100.00;95069.56;5034669;28;20203;-68
2024/01/02 10:02:33;;;;;;;0.30;0.30;;;;;;;9.53;100.00;95071.66;5035087;28;20221;-68
2024/01/02 10:05:09;;;;;;;0.30;0.30;;;;;;;9.35;100.00;95089.00;5035917;28;20232;-68
2024/01/02 10:08:06;;;;;;;0.63;0.60;;;;;;;9.31;100.00;95082.53;5036504;28;20221;-68
2024/01/02 10:10:36;;;;;;;0.83;0.70;;;;;;;9.35;100.00;95081.09;5038941;28;20205;-68
2024/01/02 10:13:22;;;;;;;0.40;0.40;;;;;;;9.43;100.00;95080.94;5037644;28;20570;-68
2024/01/02 10:16:04;;;;;;;1.00;0.60;;;;;;;9.50;100.00;95084.41;5036546;28;20710;-68
2024/01/02 10:18:44;;;;;;;1.70;0.97;;;;;;;9.59;100.00;95077.94;5036846;28;20198;-68
2024/01/02 10:21:24;;;;;;;1.17;0.60;;;;;;;9.50;100.00;95079.16;5038038;28;20589;-68
2024/01/02 10:24:01;;;;;;;0.43;0.43;;;;;;;9.50;100.00;95071.25;5037333;28;20225;-67
2024/01/02 10:26:30;;;;;;;0.43;0.40;;;;;;;9.42;100.00;95074.03;5037466;28;20583;-68
2024/01/02 10:29:04;;;;;;;0.60;0.50;;;;;;;9.64;100.00;95083.44;5037309;28;20244;-68
2024/01/02 10:31:40;;;;;;;1.00;0.67;;;;;;;9.79;100.00;95077.00;5036613;28;20201;-68
2024/01/02 10:34:17;;;;;;;0.40;0.40;;;;;;;9.71;100.00;95079.78;5036302;28;20221;-68
2024/01/02 10:36:50;;;;;;;4.63;0.70;;;;;;;9.72;100.00;95076.97;5036178;28;20209;-68
2024/01/02 10:39:23;;;;;;;0.80;0.47;;;;;;;9.71;100.00;95071.88;5035894;28;20316;-68
2024/01/02 10:41:57;;;;;;;0.57;0.40;;;;;;;9.91;100.00;95076.16;5036494;28;20638;-68
2024/01/02 10:44:42;;;;;;;1.10;1.00;;;;;;;9.65;100.00;95070.06;5037036;28;20255;-68
2024/01/02 10:47:14;;;;;;;0.80;0.40;;;;;;;9.74;100.00;95069.69;5037818;28;20216;-68
2024/01/02 10:49:45;;;;;;;0.50;0.50;;;;;;;9.62;100.00;95067.03;5038239;28;20226;-68
2024/01/02 10:52:18;;;;;;;0.30;0.30;;;;;;;9.77;100.00;95082.41;5036348;28;20193;-68
2024/01/02 10:54:54;;;;;;;0.30;0.30;;;;;;;9.82;100.00;95066.84;5035887;28;20254;-68
2024/01/02 10:57:30;;;;;;;1.30;0.50;;;;;;;9.88;100.00;95060.00;5036492;28;20216;-67
2024/01/02 11:00:05;;;;;;;0.30;0.30;;;;;;;9.94;100.00;95064.44;5037641;28;20315;-68
2024/01/02 11:02:41;;;;;;;0.57;0.53;;;;;;;10.03;100.00;95058.00;5037070;28;20223;-67
2024/01/02 11:05:12;;;;;;;0.60;0.60;;;;;;;9.88;100.00;95066.06;5036161;28;20228;-67
2024/01/02 11:07:44;;;;;;;0.33;0.33;;;;;;;9.83;100.00;95060.59;5036023;28;20221;-68
2024/01/02 11:10:14;;;;;;;0.30;0.30;;;;;;;10.02;100.00;95057.19;5037483;28;20770;-67
2024/01/02 11:12:54;;;;;;;0.50;0.40;;;;;;;10.09;100.00;95049.31;5037844;28;20205;-67
2024/01/02 11:15:22;;;;;;;0.20;0.20;;;;;;;9.79;100.00;95048.84;5036830;28;21205;-67
2024/01/02 11:17:52;;;;;;;0.30;0.30;;;;;;;10.08;100.00;95027.44;5037170;28;20201;-68
2024/01/02 11:20:20;;;;;;;0.50;0.50;;;;;;;10.08;100.00;95037.97;5037168;28;20208;-67
2024/01/02 11:22:55;;;;;;;0.30;0.30;;;;;;;10.04;100.00;95023.59;5037114;28;20208;-68
2024/01/02 11:25:25;;;;;;;0.40;0.30;;;;;;;10.14;100.00;95017.91;5037695;28;20225;-68
2024/01/02 11:27:54;;;;;;;0.87;0.40;;;;;;;10.10;100.00;95025.41;5037732;28;20243;-67
2024/01/02 11:30:22;;;;;;;0.47;0.30;;;;;;;10.12;100.00;95001.50;5037121;28;20205;-68
2024/01/02 11:33:05;;;;;;;0.30;0.30;;;;;;;10.28;100.00;95004.53;5037176;28;20215;-67
2024/01/02 11:35:40;;;;;;;0.40;0.40;;;;;;;10.30;100.00;94999.88;5038013;28;20285;-68